ADDS METAR Data INFO
IDs: Format: Raw Decoded Include TAF

Data at: 2159 UTC 24 Feb 2018

PAMD 242157Z AUTO 29021G26KT 10SM UP BKN022 OVC030 01/M01 A2943 RMK AO2 PK WND 29027/2141 UPB22RAB47E54 SLP955 P0000 T00061011 FZRANO
PAMD 242146Z AUTO 29021KT 10SM UP BKN024 OVC031 01/M01 A2943 RMK AO2 PK WND 29027/2141 UPB22 P0000 FZRANO
PAMD 242142Z AUTO 29023G27KT 10SM UP SCT024 OVC031 01/M01 A2943 RMK AO2 PK WND 29027/2141 UPB22 P0000 FZRANO
PAMD 242123Z AUTO 29020G27KT 10SM UP SCT019 BKN026 OVC032 00/M01 A2944 RMK AO2 PK WND 29027/2117 UPB22 P0000 FZRANO
PAMD 242121Z AUTO 29022G27KT 10SM SCT019 OVC030 00/M01 A2943 RMK AO2 PK WND 29027/2117 FZRANO
PAMD 242057Z AUTO 30018KT 10SM FEW008 SCT015 BKN022 01/M01 A2945 RMK AO2 UPB00E16SNE00 SLP962 P0001 60002 T00061006 50009 FZRANO
PAMD 242054Z AUTO 30018G24KT 10SM FEW008 SCT017 BKN028 01/00 A2944 RMK AO2 UPB00E16SNE00 P0001 FZRANO
PAMD 242030Z AUTO 32018KT 10SM SCT008 01/00 A2945 RMK AO2 UPB00E16SNE00 P0000 FZRANO
PAMD 241957Z AUTO 32020G25KT 8SM -SN BKN006 OVC011 00/M01 A2945 RMK AO2 CIG 003V008 SLP963 P0001 T00001006 FZRANO
PAMD 241953Z AUTO 32019G22KT 4SM -SN BR BKN006 OVC011 00/M01 A2945 RMK AO2 CIG 003V008 P0001 FZRANO
PAMD 241951Z AUTO 32019G23KT 2 1/2SM -SN BR BKN006 OVC011 00/M01 A2945 RMK AO2 CIG 003V008 P0001 FZRANO
PAMD 241949Z AUTO 33018G23KT 1 1/2SM -SN BR BKN006 OVC011 00/M01 A2945 RMK AO2 CIG 003V008 P0001 FZRANO
PAMD 241947Z AUTO 32019G23KT 1SM -SN BR BKN006 OVC011 00/M01 A2945 RMK AO2 CIG 003V009 P0001 FZRANO
PAMD 241937Z AUTO 32016G24KT 3/4SM -SN BR BKN008 OVC011 00/M01 A2945 RMK AO2 CIG 004V010 P0001 FZRANO
PAMD 241935Z AUTO 33017G24KT 1SM -SN BR SCT006 OVC011 00/M01 A2945 RMK AO2 P0001 FZRANO
PAMD 241929Z AUTO 33017KT 1 1/4SM -SN BR SCT006 OVC011 00/M01 A2945 RMK AO2 VIS 3/4V2 1/2 P0001 FZRANO
PAMD 241927Z AUTO 33016G21KT 1SM -SN BR SCT006 OVC011 00/M01 A2945 RMK AO2 P0001 FZRANO
PAMD 241910Z AUTO 34015G22KT 1SM -SN BR BKN007 OVC011 00/M01 A2944 RMK AO2 CIG 004V010 P0001 FZRANO
PAMD 241900Z AUTO 33019G24KT 3/4SM -SN BR BKN007 OVC010 00/M01 A2944 RMK AO2 P0000 FZRANO
PAMD 241857Z AUTO 34017G23KT 1SM -SN BR BKN007 OVC013 00/M01 A2944 RMK AO2 RAE01B19E26UPB01E36SNB02E17B36 CIG 005V009 SLP959 P0000 T00001006 FZRANO
PAMD 241843Z AUTO 34017G24KT 1 3/4SM -SN BR OVC007 00/M01 A2943 RMK AO2 RAE01B19E26UPB01E36SNB02E17B36 CIG 005V009 P0000 FZRANO
PAMD 241839Z AUTO 34014G24KT 2 1/2SM -SN BR OVC007 00/M01 A2943 RMK AO2 RAE01B19E26UPB01E36SNB02E17B36 CIG 005V011 P0000 FZRANO
PAMD 241816Z AUTO 35015G21KT 3SM -SN BR OVC007 01/M01 A2942 RMK AO2 RAE01UPB01E02SNB02 CIG 005V009 P0000 FZRANO
PAMD 241809Z AUTO 35016G21KT 2 1/2SM -SN BR OVC007 01/M01 A2942 RMK AO2 VIS 1 1/4V5 RAE01UPB01E02SNB02 CIG 005V010 P0000 FZRANO
PAMD 241757Z AUTO 36013G20KT 7SM -RA OVC007 01/00 A2942 RMK AO2 UPE12B31E38RAB12E19B38SNB19E31 CIG 005V010 SLP953 P0001 60007 T00060000 10006 20000 53006 FZRANO
PAMD 241731Z AUTO 03014KT 3SM UP BR BKN007 OVC011 01/00 A2941 RMK AO2 UPE12B31RAB12E19SNB19E31 CIG 005V009 P0000 FZRANO
PAMD 241722Z AUTO 03013KT 2SM -SN BR OVC007 01/00 A2941 RMK AO2 VIS 1 1/4V5 UPE12RAB12E19SNB19 P0000 FZRANO
PAMD 241657Z AUTO 03012G19KT 5SM UP BR BKN007 OVC010 01/00 A2941 RMK AO2 PK WND 05026/1603 UPB03SNE03B47E56 CIG 004V008 SLP949 P0001 T00060000 FZRANO
PAMD 241647Z AUTO 04015KT 4SM -SN BR BKN007 OVC011 01/M01 A2940 RMK AO2 PK WND 05026/1603 UPB03E47SNE03B47 CIG 004V008 P0001 FZRANO
PAMD 241615Z AUTO 05017G25KT 4SM UP BR BKN005 OVC012 01/M01 A2939 RMK AO2 PK WND 05026/1603 UPB03SNE03 CIG 003V008 P0000 FZRANO
PAMD 241607Z AUTO 05021G26KT 3SM UP BR BKN003 OVC010 01/M01 A2939 RMK AO2 PK WND 05026/1603 UPB03SNE03 CIG 003V008 P0000 FZRANO
PAMD 241604Z AUTO 05021G26KT 2 1/2SM UP BR BKN003 OVC010 01/M01 A2939 RMK AO2 PK WND 05026/1603 VIS 2V4 UPB03SNE03 P0000 FZRANO
PAMD 241557Z AUTO 06020KT 3SM -SN BR OVC003 01/M01 A2939 RMK AO2 PK WND 05026/1545 UPB38E53SNE38B53 SLP944 P0001 T00061006 FZRANO
PAMD 241457Z AUTO 06019G23KT 3SM -SN BR OVC003 01/M01 A2940 RMK AO2 PK WND 08027/1416 CIG 003V008 SLP947 P0002 60004 T00061006 56062 FZRANO
PAMD 241427Z AUTO 07019KT 3SM -SN BR OVC005 01/M01 A2942 RMK AO2 PK WND 08027/1416 CIG 003V008 P0001 FZRANO
PAMD 241418Z AUTO 08021G27KT 2 1/2SM -SN BR BKN005 OVC011 01/M01 A2942 RMK AO2 PK WND 08027/1416 CIG 004V009 P0001 FZRANO
PAMD 241357Z AUTO 08021G26KT 3SM -SN BR BKN009 OVC013 01/M01 A2944 RMK AO2 PK WND 08027/1334 UPE02B29E30RAB02E42SNB15E29B42 CIG 006V010 SLP959 P0002 T00061006 FZRANO
PAMD 241257Z AUTO 09021G24KT 6SM UP BR OVC007 01/M01 A2950 RMK AO2 PK WND 10026/1226 UPB27SNE27 CIG 005V011 SLP979 P0000 T00061006 FZRANO
PAMD 241235Z AUTO 09020G26KT 10SM UP OVC007 00/M01 A2952 RMK AO2 PK WND 10026/1226 UPB27SNE27 CIG 003V010 PRESFR P0000 FZRANO
PAMD 241218Z AUTO 10019KT 3SM -SN BR BKN005 OVC011 00/M01 A2955 RMK AO2 CIG 003V009 P0000 FZRANO
PAMD 241209Z AUTO 10019KT 2SM -SN BR OVC005 00/M01 A2956 RMK AO2 CIG 003V008 PRESFR P0000 FZRANO
PAMD 241204Z AUTO 10016KT 1 3/4SM -SN BR OVC005 00/M01 A2958 RMK AO2 CIG 003V009 P0000 FZRANO
PAMD 241159Z AUTO 09017G22KT 2 1/2SM -SN BR BKN007 OVC011 00/M01 A2958 RMK AO2 CIG 003V009 P0000 FZRANO
PAMD 241157Z AUTO 09018G22KT 3SM -SN BR BKN007 OVC011 00/M01 A2959 RMK AO2 UPB43E56SNE43B56 CIG 004V009 SLP009 P0000 60000 T00001011 10017 21006 58067 FZRANO
PAMD 241057Z AUTO 10009KT 6SM -SN BR BKN007 OVC036 M01/M02 A2966 RMK AO2 UPB07E09SNE07B09 CIG 005V012 SLP034 P0000 T10061017 FZRANO
PAMD 241051Z AUTO 10011KT 8SM -SN SCT007 BKN011 OVC036 M01/M02 A2967 RMK AO2 UPB07E09SNE07B09 P0000 FZRANO
PAMD 241037Z AUTO 11012KT 5SM -SN BR BKN007 BKN010 OVC038 M01/M02 A2968 RMK AO2 UPB07E09SNE07B09 CIG 004V008 P0000 FZRANO
PAMD 241027Z AUTO 10011KT 4SM -SN BR SCT007 BKN016 OVC027 M01/M02 A2968 RMK AO2 UPB07E09SNE07B09 PRESFR P0000 FZRANO
PAMD 241021Z AUTO 11010KT 3SM -SN BR BKN007 BKN016 OVC022 M01/M02 A2969 RMK AO2 UPB07E09SNE07B09 CIG 004V010 PRESFR P0000 FZRANO
PAMD 241017Z AUTO 11009KT 2SM -SN BR SCT007 BKN016 OVC028 M01/M02 A2970 RMK AO2 UPB07E09SNE07B09 PRESFR P0000 FZRANO
PAMD 241012Z AUTO 12008KT 1 3/4SM -SN BR SCT007 BKN020 OVC028 M01/M02 A2971 RMK AO2 UPB07E09SNE07B09 PRESFR P0000 FZRANO
PAMD 241007Z AUTO 13007KT 2 1/2SM UP BR FEW009 BKN020 OVC036 M01/M02 A2973 RMK AO2 UPB07SNE07 P0000 FZRANO
PAMD 240957Z AUTO 15006KT 3SM -SN BR FEW009 BKN027 OVC050 M01/M02 A2974 RMK AO2 RAE07UPB21E46SNB07E21B23E32B46 SLP062 P0000 T10061022 FZRANO
PAMD 240953Z AUTO 15005KT 4SM -SN BR FEW009 BKN029 OVC050 M01/M02 A2974 RMK AO2 RAE07UPB21E46SNB07E21B23E32B46 P0000 FZRANO
PAMD 240947Z AUTO 16006KT 9SM -SN FEW009 BKN037 OVC050 M01/M02 A2975 RMK AO2 RAE07UPB21E46SNB07E21B23E32B46 P0000 FZRANO
PAMD 240923Z AUTO 18006KT 8SM -SN FEW009 BKN020 OVC028 M01/M02 A2976 RMK AO2 RAE07UPB21E23SNB07E21B23 P0000 FZRANO
PAMD 240909Z AUTO 18008KT 6SM -SN BR SCT017 BKN026 OVC043 00/M02 A2977 RMK AO2 RAE07SNB07 P0000 FZRANO
PAMD 240857Z AUTO 20005KT 10SM -RA BKN039 BKN046 OVC055 01/M05 A2979 RMK AO2 RAB43 SLP077 P0000 60000 T00061050 58038 FZRANO
PAMD 240757Z AUTO VRB04KT 10SM OVC050 02/M07 A2983 RMK AO2 SLP091 T00171072 400440006 FZRANO
PAMD 240657Z AUTO 13004KT 10SM OVC070 01/M07 A2987 RMK AO2 SLP104 T00111072 FZRANO
PAMD 240557Z AUTO 10003KT 10SM OVC085 01/M08 A2990 RMK AO2 SLP115 T00111083 10028 20011 58025 FZRANO
PAMD 240457Z AUTO 00000KT 10SM OVC100 02/M08 A2993 RMK AO2 SLP126 T00171083 FZRANO
PAMD 240357Z AUTO 35004KT 10SM BKN110 01/M07 A2995 RMK AO2 SLP133 T00111072 FZRANO
PAMD 240257Z AUTO 31005KT 10SM CLR 01/M08 A2997 RMK AO2 SLP140 T00111078 56007 FZRANO
PAMD 240157Z AUTO 31009KT 10SM CLR 02/M09 A2998 RMK AO2 SLP142 T00171089 FZRANO
PAMD 240057Z AUTO 31015KT 10SM CLR 03/M08 A2998 RMK AO2 SLP144 T00281083
PAMD 232357Z AUTO 32015KT 10SM CLR 03/M08 A2999 RMK AO2 SLP148 T00281078 10033 20011 51006
PAMD 232257Z AUTO 31016KT 10SM CLR 02/M07 A2999 RMK AO2 SLP147 T00221072 FZRANO
PAMD 232157Z AUTO 31017KT 10SM CLR 03/M08 A3000 RMK AO2 PK WND 31027/2059 SLP150 T00281083
PAMD 232057Z AUTO 30023KT 10SM CLR 02/M07 A2998 RMK AO2 PK WND 30028/2052 SLP142 T00221072 51026 FZRANO
PAMD 231957Z AUTO 30019G26KT 10SM CLR 02/M08 A2997 RMK AO2 PK WND 30031/1924 SLP140 T00221078 FZRANO
PAMD 231857Z AUTO 31024G32KT 10SM CLR 02/M08 A2994 RMK AO2 PK WND 31035/1812 SLP128 T00171083 FZRANO
PAMD 231757Z AUTO 31029G37KT 10SM CLR 02/M09 A2990 RMK AO2 PK WND 31040/1732 SLP116 T00171089 10033 20017 53021 FZRANO
PAMD 231657Z AUTO 30034G44KT 10SM CLR 02/M10 A2987 RMK AO2 PK WND 31046/1610 SLP105 T00171100 FZRANO
PAMD 231557Z AUTO 30039G46KT 10SM CLR 02/M09 A2983 RMK AO2 PK WND 31046/1551 SLP093 T00221094 FZRANO
PAMD 231457Z AUTO 29033G43KT 10SM CLR 03/M08 A2984 RMK AO2 PK WND 29052/1437 SLP095 T00281078 53014
PAMD 231357Z AUTO 30036G45KT 10SM CLR 03/M07 A2979 RMK AO2 PK WND 31047/1344 SLP080 T00281072
PAMD 231257Z AUTO 30034G43KT 10SM CLR 03/M06 A2980 RMK AO2 PK WND 30044/1237 SLP080 T00331061
PAMD 231157Z AUTO 30032G41KT 10SM CLR 03/M07 A2980 RMK AO2 PK WND 29047/1107 SLP081 70015 T00331067 10044 20033 55013
PAMD 231057Z AUTO 29032G38KT 10SM CLR 04/M04 A2978 RMK AO2 PK WND 29038/1048 SLP075 T00391039